Time;durP1;ratioP1;P1;durP2;ratioP2;P2;SDS_P1;SDS_P2;PMS_P1;PMS_P2;Temp;Humidity;BMP_temperature;BMP_pressure;BME280_temperature;BME280_humidity;BME280_pressure;Samples;Min_cycle;Max_cycle;Signal;HPM_P1;HPM_P2
2023/09/26 00:02:18;;;;;;;17.50;5.25;;;;;;;19.13;65.03;94277.41;5085776;28;20031;-81
2023/09/26 00:04:44;;;;;;;19.33;5.30;;;;;;;19.11;65.05;94266.19;5067656;28;20020;-81
2023/09/26 00:07:10;;;;;;;13.85;5.13;;;;;;;19.05;65.38;94268.41;5085421;28;20020;-82
2023/09/26 00:09:35;;;;;;;12.65;4.88;;;;;;;19.04;65.64;94278.41;5067296;28;20024;-82
2023/09/26 00:12:03;;;;;;;15.60;4.72;;;;;;;18.97;66.20;94281.00;5085479;28;20024;-82
2023/09/26 00:14:28;;;;;;;11.93;4.35;;;;;;;18.96;66.40;94279.41;5085131;28;20044;-82
2023/09/26 00:16:54;;;;;;;17.00;4.70;;;;;;;18.95;66.43;94280.56;5067517;28;20055;-82
2023/09/26 00:19:19;;;;;;;15.27;4.35;;;;;;;18.91;66.35;94277.03;5085458;28;20028;-82
2023/09/26 00:21:47;;;;;;;12.63;4.65;;;;;;;18.89;66.48;94276.59;5085210;28;20046;-81
2023/09/26 00:24:12;;;;;;;10.93;4.55;;;;;;;18.90;66.69;94274.66;5066978;28;20036;-82
2023/09/26 00:26:38;;;;;;;19.33;4.72;;;;;;;18.84;67.07;94272.25;5067325;28;20091;-82
2023/09/26 00:29:03;;;;;;;12.48;4.63;;;;;;;18.85;67.00;94278.44;5085113;28;20052;-82
2023/09/26 00:31:29;;;;;;;15.88;4.50;;;;;;;18.80;67.17;94281.41;5084860;28;20073;-82
2023/09/26 00:33:54;;;;;;;17.45;4.47;;;;;;;18.77;67.34;94269.38;5084796;28;20024;-81
2023/09/26 00:36:20;;;;;;;8.95;4.05;;;;;;;18.75;67.51;94281.69;5085173;28;20082;-82
2023/09/26 00:38:45;;;;;;;12.23;4.70;;;;;;;18.68;67.45;94276.88;5084968;28;20087;-81
2023/09/26 00:41:11;;;;;;;21.55;4.60;;;;;;;18.68;67.85;94276.13;5066789;28;20032;-81
2023/09/26 00:43:37;;;;;;;15.07;5.13;;;;;;;18.63;67.91;94272.56;5067007;28;20016;-81
2023/09/26 00:46:05;;;;;;;24.33;5.45;;;;;;;18.58;68.08;94262.06;5084796;28;20092;-81
2023/09/26 00:48:31;;;;;;;16.33;4.70;;;;;;;18.56;68.15;94269.72;5084382;28;20380;-81
2023/09/26 00:50:57;;;;;;;15.57;5.05;;;;;;;18.53;68.32;94267.72;5084730;28;20039;-81
2023/09/26 00:53:25;;;;;;;12.15;4.57;;;;;;;18.51;68.69;94272.69;5066766;28;20056;-80
2023/09/26 00:55:54;;;;;;;23.23;4.53;;;;;;;18.48;68.85;94269.91;5084702;28;20063;-81
2023/09/26 00:58:21;;;;;;;14.65;4.63;;;;;;;18.45;68.78;94274.09;5084649;28;20309;-81
2023/09/26 01:00:50;;;;;;;17.77;5.57;;;;;;;18.40;69.12;94275.16;5084584;28;20099;-81
2023/09/26 01:03:16;;;;;;;10.30;4.35;;;;;;;18.41;69.11;94278.63;5084363;28;20207;-81
2023/09/26 01:05:41;;;;;;;12.15;4.80;;;;;;;18.37;69.19;94275.06;5084372;28;20032;-81
2023/09/26 01:08:08;;;;;;;18.73;4.55;;;;;;;18.35;69.16;94274.66;5084268;28;20022;-81
2023/09/26 01:11:28;;;;;;;16.27;5.00;;;;;;;18.34;69.38;94275.75;5084320;28;20028;-81
2023/09/26 01:13:53;;;;;;;17.25;4.60;;;;;;;18.25;69.48;94263.25;4982061;28;20098;-81
2023/09/26 01:16:19;;;;;;;12.52;4.35;;;;;;;18.28;69.49;94269.09;5044187;28;20231;-82
2023/09/26 01:18:46;;;;;;;18.98;4.80;;;;;;;18.25;69.49;94274.03;5082115;28;20082;-81
2023/09/26 01:21:12;;;;;;;10.80;4.95;;;;;;;18.20;69.50;94266.25;5065603;28;20349;-81
2023/09/26 01:23:40;;;;;;;14.38;4.95;;;;;;;18.19;69.76;94261.97;5083976;28;20028;-81
2023/09/26 01:26:06;;;;;;;13.77;5.07;;;;;;;18.14;69.75;94264.94;5083759;28;20099;-82
2023/09/26 01:28:32;;;;;;;15.95;4.57;;;;;;;18.15;69.88;94266.50;5083710;28;20020;-81
2023/09/26 01:30:57;;;;;;;14.48;4.85;;;;;;;18.16;69.72;94264.59;5083946;28;20342;-81
2023/09/26 01:33:23;;;;;;;11.10;4.45;;;;;;;18.18;69.46;94265.03;5065888;28;20032;-81
2023/09/26 01:35:51;;;;;;;16.95;4.82;;;;;;;18.15;69.23;94266.50;5083734;28;20024;-81
2023/09/26 01:38:18;;;;;;;15.65;4.80;;;;;;;18.11;69.65;94271.03;5065708;28;20065;-81
2023/09/26 01:40:43;;;;;;;8.88;5.05;;;;;;;18.12;69.14;94279.91;5083643;28;20047;-81
2023/09/26 01:43:08;;;;;;;18.25;4.53;;;;;;;18.15;68.82;94281.91;5083437;28;20016;-81
2023/09/26 01:45:34;;;;;;;18.20;4.72;;;;;;;18.13;69.05;94274.16;5083607;28;20082;-81
2023/09/26 01:48:00;;;;;;;13.05;4.50;;;;;;;18.13;68.83;94270.69;5065761;28;20096;-82
2023/09/26 01:50:26;;;;;;;17.75;4.95;;;;;;;18.09;68.51;94267.91;5083212;28;20031;-82
2023/09/26 01:52:52;;;;;;;10.13;4.13;;;;;;;18.06;68.91;94265.13;5083549;28;20095;-82
2023/09/26 01:55:19;;;;;;;12.68;5.82;;;;;;;17.99;68.69;94260.34;5083668;28;20032;-81
2023/09/26 01:57:45;;;;;;;24.50;5.15;;;;;;;17.97;68.58;94262.59;5083229;28;20020;-81
2023/09/26 02:00:12;;;;;;;12.10;4.85;;;;;;;17.97;68.72;94281.47;5065462;28;20034;-82
2023/09/26 02:02:44;;;;;;;14.23;4.57;;;;;;;17.95;68.79;94278.34;5083483;28;20062;-82
2023/09/26 02:05:12;;;;;;;9.65;4.30;;;;;;;17.98;68.35;94283.06;5065465;28;20138;-81
2023/09/26 02:07:37;;;;;;;14.55;5.22;;;;;;;17.99;67.87;94274.63;5082901;28;20031;-82
2023/09/26 02:10:04;;;;;;;13.63;5.03;;;;;;;18.02;67.83;94286.63;5065276;28;20024;-82
2023/09/26 02:12:30;;;;;;;13.70;5.40;;;;;;;18.01;67.44;94275.06;5083166;28;20097;-81
2023/09/26 02:14:56;;;;;;;16.90;5.20;;;;;;;18.00;67.20;94280.81;5065073;28;20045;-81
2023/09/26 02:17:22;;;;;;;14.05;4.95;;;;;;;18.00;66.82;94272.72;5083040;28;20455;-81
2023/09/26 02:19:47;;;;;;;17.90;4.60;;;;;;;18.00;66.97;94276.19;5083121;28;20016;-82
2023/09/26 02:22:13;;;;;;;15.48;5.07;;;;;;;18.02;66.45;94276.63;5083038;28;20090;-82
2023/09/26 02:24:38;;;;;;;20.52;4.78;;;;;;;18.04;66.17;94273.56;5082875;28;20035;-81
2023/09/26 02:27:04;;;;;;;21.17;4.10;;;;;;;18.09;65.79;94281.38;5083127;28;20020;-81
2023/09/26 02:29:29;;;;;;;24.90;4.97;;;;;;;18.10;65.42;94272.16;5082783;28;20021;-81
2023/09/26 02:31:55;;;;;;;15.45;5.22;;;;;;;18.12;64.97;94278.00;5064871;28;20302;-81
2023/09/26 02:34:22;;;;;;;16.17;4.72;;;;;;;18.11;64.67;94273.72;5081911;28;20020;-81
2023/09/26 02:36:48;;;;;;;18.00;5.38;;;;;;;18.12;64.20;94269.91;5065059;28;20016;-81
2023/09/26 02:39:13;;;;;;;13.75;5.85;;;;;;;18.13;63.88;94271.47;5064939;28;20098;-81
2023/09/26 02:41:39;;;;;;;13.95;4.07;;;;;;;18.14;63.39;94270.34;5082493;28;20121;-81
2023/09/26 02:44:06;;;;;;;14.77;4.75;;;;;;;18.12;63.46;94271.84;5064739;28;20054;-81
2023/09/26 02:46:32;;;;;;;13.45;3.97;;;;;;;18.11;62.60;94270.25;5082868;28;20021;-81
2023/09/26 02:48:59;;;;;;;17.10;4.80;;;;;;;18.08;62.25;94274.44;5082663;28;20319;-81
2023/09/26 02:51:25;;;;;;;20.95;4.57;;;;;;;18.09;61.93;94276.00;5082634;28;20020;-81
2023/09/26 02:53:50;;;;;;;16.85;3.85;;;;;;;18.11;61.08;94270.25;5082892;28;20024;-81
2023/09/26 02:56:16;;;;;;;14.88;4.28;;;;;;;18.11;59.64;94270.25;5064822;28;20315;-81
2023/09/26 02:58:41;;;;;;;11.50;3.55;;;;;;;18.11;58.73;94270.25;5082732;28;20025;-81
2023/09/26 03:01:07;;;;;;;19.52;3.92;;;;;;;18.11;57.70;94272.94;5064650;28;20017;-81
2023/09/26 03:03:32;;;;;;;12.48;3.70;;;;;;;18.08;56.36;94274.44;5082637;28;20311;-81
2023/09/26 03:05:59;;;;;;;14.32;3.75;;;;;;;18.07;55.26;94274.78;5064695;28;20322;-81
2023/09/26 03:08:24;;;;;;;14.73;3.45;;;;;;;18.03;55.77;94280.88;5082288;28;20303;-81
2023/09/26 03:10:49;;;;;;;21.98;3.20;;;;;;;18.03;54.86;94274.69;5064799;28;20044;-81
2023/09/26 03:13:15;;;;;;;17.17;3.15;;;;;;;18.03;54.62;94282.78;5064506;28;20108;-82
2023/09/26 03:15:40;;;;;;;14.52;3.10;;;;;;;18.02;54.67;94271.22;5064631;28;20025;-81
2023/09/26 03:18:06;;;;;;;13.85;3.20;;;;;;;18.04;54.57;94282.44;5082297;28;20025;-81
2023/09/26 03:20:32;;;;;;;21.80;3.17;;;;;;;18.06;54.07;94281.31;5082421;28;20094;-82
2023/09/26 03:22:57;;;;;;;17.10;3.40;;;;;;;18.04;53.29;94284.38;5082453;28;20096;-81
2023/09/26 03:25:25;;;;;;;11.52;4.28;;;;;;;18.03;53.32;94290.88;5082267;28;20219;-81
2023/09/26 03:27:59;;;;;;;11.30;3.63;;;;;;;18.07;52.89;94291.75;5064449;28;20407;-82
2023/09/26 03:30:24;;;;;;;10.13;3.42;;;;;;;18.06;52.91;94284.03;5064272;28;20315;-80
2023/09/26 03:32:50;;;;;;;9.85;3.38;;;;;;;18.04;52.40;94282.44;5081258;28;20028;-80
2023/09/26 03:35:15;;;;;;;12.85;3.63;;;;;;;18.02;51.89;94279.31;5082164;28;20024;-80
2023/09/26 03:37:40;;;;;;;15.23;3.40;;;;;;;18.01;51.90;94299.34;5082279;28;20412;-80
2023/09/26 03:40:07;;;;;;;19.08;4.30;;;;;;;18.01;51.92;94274.25;5081833;28;20327;-81
2023/09/26 03:43:02;;;;;;;;;;;;;;;;;;;;;
2023/09/26 03:45:28;;;;;;;19.90;2.90;;;;;;;18.01;52.02;94279.66;5084239;28;20055;-82
2023/09/26 03:47:53;;;;;;;16.63;3.38;;;;;;;18.04;51.89;94295.16;5085905;28;20016;-82
2023/09/26 03:50:19;;;;;;;12.85;3.08;;;;;;;18.00;51.86;94296.97;5068070;28;20027;-83
2023/09/26 03:52:44;;;;;;;18.55;4.28;;;;;;;17.98;51.65;94288.47;5084638;28;20049;-83
2023/09/26 03:55:10;;;;;;;7.80;3.08;;;;;;;17.95;51.65;94291.84;5085670;28;20385;-82
2023/09/26 03:57:36;;;;;;;15.40;2.70;;;;;;;17.94;51.87;94301.84;5085562;28;20028;-83
2023/09/26 04:00:18;;;;;;;13.68;2.95;;;;;;;17.91;52.10;94301.75;5085588;28;20236;-82
2023/09/26 04:02:45;;;;;;;14.10;2.95;;;;;;;17.95;52.29;94305.31;5085670;28;20100;-81
2023/09/26 04:05:10;;;;;;;23.25;3.10;;;;;;;17.94;51.91;94295.69;5085439;28;20032;-82
2023/09/26 04:07:37;;;;;;;17.58;3.17;;;;;;;17.92;52.07;94306.81;5085663;28;20024;-81
2023/09/26 04:10:02;;;;;;;18.95;3.17;;;;;;;17.94;52.03;94306.47;5067397;28;20031;-81
2023/09/26 04:12:28;;;;;;;21.00;3.38;;;;;;;17.94;52.31;94309.94;5083699;28;20021;-82
2023/09/26 04:14:54;;;;;;;17.60;3.03;;;;;;;17.95;52.33;94310.72;5083429;28;20032;-84
2023/09/26 04:17:19;;;;;;;8.52;3.05;;;;;;;17.89;52.37;94312.09;5083870;28;20028;-82
2023/09/26 04:19:47;;;;;;;11.75;3.20;;;;;;;17.93;52.85;94313.78;5083493;28;20028;-83
2023/09/26 04:22:13;;;;;;;16.25;3.47;;;;;;;17.91;52.76;94307.16;5065493;28;20028;-83
2023/09/26 04:24:38;;;;;;;13.43;3.13;;;;;;;17.85;52.72;94309.34;5065562;28;20031;-83
2023/09/26 04:27:04;;;;;;;18.90;3.45;;;;;;;17.85;52.99;94317.44;5083088;28;20021;-83
2023/09/26 04:29:29;;;;;;;24.33;4.60;;;;;;;17.85;53.13;94320.13;5082848;28;20028;-83
2023/09/26 04:31:55;;;;;;;16.52;3.28;;;;;;;17.87;53.20;94314.38;5065524;28;20416;-83
2023/09/26 04:34:21;;;;;;;21.42;3.65;;;;;;;17.79;53.51;94311.47;5083635;28;20047;-83
2023/09/26 04:36:47;;;;;;;10.43;3.42;;;;;;;17.78;53.58;94312.59;5083773;28;20025;-83
2023/09/26 04:39:13;;;;;;;18.60;3.25;;;;;;;17.77;53.89;94305.66;5065479;28;20017;-83
2023/09/26 04:41:39;;;;;;;20.30;3.58;;;;;;;17.79;53.90;94313.41;5084782;28;20292;-82
2023/09/26 04:44:07;;;;;;;13.25;3.55;;;;;;;17.77;53.98;94305.66;5084677;28;20070;-83
2023/09/26 04:46:32;;;;;;;19.60;3.92;;;;;;;17.79;54.23;94316.88;5084734;28;20035;-83
2023/09/26 04:48:58;;;;;;;20.00;4.13;;;;;;;17.77;54.26;94316.44;5084659;28;20020;-83
2023/09/26 04:51:23;;;;;;;21.02;3.97;;;;;;;17.78;54.29;94312.59;5084720;28;20330;-83
2023/09/26 04:53:49;;;;;;;10.02;3.13;;;;;;;17.78;54.49;94312.59;5067016;28;20095;-83
2023/09/26 04:56:14;;;;;;;18.23;3.45;;;;;;;17.83;54.63;94320.47;5083317;28;20028;-83
2023/09/26 04:58:40;;;;;;;26.80;4.18;;;;;;;17.83;54.75;94331.25;5084600;28;20013;-83
2023/09/26 05:01:13;;;;;;;18.15;3.80;;;;;;;17.86;54.74;94327.06;5084583;28;20016;-83
2023/09/26 05:03:39;;;;;;;22.85;3.50;;;;;;;17.86;54.77;94318.97;5084202;28;20027;-83
2023/09/26 05:06:04;;;;;;;17.23;3.40;;;;;;;17.83;54.88;94320.47;5084356;28;20024;-83
2023/09/26 05:08:29;;;;;;;22.65;3.88;;;;;;;17.89;55.18;94328.28;5084220;28;20052;-83
2023/09/26 05:10:55;;;;;;;14.63;3.53;;;;;;;17.88;54.94;94326.72;5082946;28;20032;-83
2023/09/26 05:13:20;;;;;;;14.43;4.32;;;;;;;17.91;55.12;94320.63;5066405;28;20051;-83
2023/09/26 05:15:46;;;;;;;13.65;3.63;;;;;;;17.99;54.96;94330.47;5084173;28;20051;-83
2023/09/26 05:18:11;;;;;;;16.48;3.55;;;;;;;18.05;55.06;94331.75;5084131;28;20215;-83
2023/09/26 05:20:39;;;;;;;20.45;4.00;;;;;;;18.09;54.72;94338.03;5082715;28;20211;-83
2023/09/26 05:23:04;;;;;;;19.00;4.13;;;;;;;18.16;54.98;94335.50;5083953;28;20119;-84
2023/09/26 05:25:33;;;;;;;24.50;3.60;;;;;;;18.16;54.42;94345.53;5083980;28;20035;-81
2023/09/26 05:27:59;;;;;;;19.30;4.00;;;;;;;18.27;54.62;94348.47;5083886;28;20020;-82
2023/09/26 05:30:25;;;;;;;20.83;3.17;;;;;;;18.33;54.05;94341.69;5083876;28;20074;-83
2023/09/26 05:32:50;;;;;;;21.63;3.05;;;;;;;18.38;54.09;94331.41;5083998;28;20458;-82
2023/09/26 05:35:15;;;;;;;18.20;4.65;;;;;;;18.43;54.01;94333.03;5065890;28;20245;-83
2023/09/26 05:37:41;;;;;;;17.05;4.18;;;;;;;18.51;53.83;94332.06;5083593;28;20028;-83
2023/09/26 05:40:07;;;;;;;18.83;3.75;;;;;;;18.52;53.47;94332.84;5083701;28;20214;-83
2023/09/26 05:42:34;;;;;;;21.27;3.67;;;;;;;18.60;53.97;94329.97;5082544;28;20031;-85
2023/09/26 05:45:04;;;;;;;16.83;3.17;;;;;;;18.70;54.03;94333.25;5083327;28;20087;-83
2023/09/26 05:47:30;;;;;;;19.63;3.75;;;;;;;18.81;53.73;94340.47;5083457;28;20027;-82
2023/09/26 05:49:55;;;;;;;21.17;3.90;;;;;;;18.81;53.44;94337.00;5083406;28;20016;-82
2023/09/26 05:52:20;;;;;;;25.38;3.72;;;;;;;18.81;53.16;94340.47;5065848;28;20020;-82
2023/09/26 05:54:47;;;;;;;17.20;3.13;;;;;;;18.82;53.00;94336.63;5083339;28;20078;-83
2023/09/26 05:57:16;;;;;;;22.75;4.75;;;;;;;18.89;53.05;94351.41;5083399;28;20087;-82
2023/09/26 05:59:41;;;;;;;18.02;4.00;;;;;;;18.96;51.76;94335.38;5083145;28;20270;-83
2023/09/26 06:02:10;;;;;;;18.33;3.25;;;;;;;18.88;52.49;94341.75;5082025;28;20034;-83
2023/09/26 06:04:40;;;;;;;16.33;3.83;;;;;;;18.95;52.56;94345.41;5065424;28;20017;-83
2023/09/26 06:07:05;;;;;;;18.98;3.78;;;;;;;19.03;52.67;94354.41;5082993;28;20087;-83
2023/09/26 06:09:31;;;;;;;16.80;4.45;;;;;;;19.08;52.54;94348.75;5082925;28;20133;-84
2023/09/26 06:11:56;;;;;;;17.10;3.92;;;;;;;19.13;52.04;94345.78;5083241;28;20016;-85
2023/09/26 06:14:21;;;;;;;13.70;4.20;;;;;;;19.18;52.16;94348.16;5083075;28;20036;-86
2023/09/26 06:16:47;;;;;;;17.85;3.53;;;;;;;19.26;51.71;94345.63;5065857;28;20020;-87
2023/09/26 06:19:13;;;;;;;17.08;3.38;;;;;;;19.30;52.01;94352.66;5066116;28;20020;-89
2023/09/26 06:21:38;;;;;;;29.75;3.70;;;;;;;19.36;51.81;94350.47;5083727;28;20091;-89
2023/09/26 06:24:06;;;;;;;16.83;4.70;;;;;;;19.38;52.22;94351.66;5083914;28;20023;-89
2023/09/26 06:26:31;;;;;;;23.42;5.75;;;;;;;19.45;52.01;94349.06;5083866;28;20016;-88
2023/09/26 06:28:57;;;;;;;18.55;4.63;;;;;;;19.51;51.66;94348.81;5083873;28;20306;-88
2023/09/26 06:31:22;;;;;;;18.25;3.90;;;;;;;19.52;51.66;94344.94;5083785;28;20016;-87
2023/09/26 06:33:48;;;;;;;20.05;3.30;;;;;;;19.53;51.90;94341.13;5083740;28;20036;-89
2023/09/26 06:36:15;;;;;;;17.98;3.15;;;;;;;19.56;51.90;94343.88;5083711;28;20025;-87
2023/09/26 06:38:41;;;;;;;17.58;3.75;;;;;;;19.59;51.78;94337.75;5083327;28;20028;-84
2023/09/26 06:41:07;;;;;;;13.65;3.95;;;;;;;19.62;51.92;94344.34;5082960;28;20027;-80
2023/09/26 06:43:32;;;;;;;19.02;3.67;;;;;;;19.67;53.10;94346.00;5082870;28;20196;-77
2023/09/26 06:45:58;;;;;;;22.77;4.35;;;;;;;19.72;55.68;94351.94;5082709;28;20032;-76
2023/09/26 06:48:23;;;;;;;10.70;3.53;;;;;;;19.77;56.67;94340.81;5081931;28;20027;-76
2023/09/26 06:50:48;;;;;;;10.48;3.08;;;;;;;19.88;56.42;94345.63;5082935;28;20085;-77
2023/09/26 06:53:14;;;;;;;20.05;3.80;;;;;;;19.93;56.80;94339.94;5082770;28;20271;-76
2023/09/26 06:55:39;;;;;;;18.23;4.20;;;;;;;20.00;53.91;94343.50;5082733;28;20031;-76
2023/09/26 06:58:09;;;;;;;18.05;3.08;;;;;;;20.03;55.08;94339.31;5082438;28;20082;-77
2023/09/26 07:00:35;;;;;;;22.58;3.92;;;;;;;20.11;55.20;94343.72;5064425;28;20027;-77
2023/09/26 07:03:02;;;;;;;15.60;4.75;;;;;;;20.18;54.51;94343.81;5082678;28;20020;-77
2023/09/26 07:05:28;;;;;;;16.88;4.18;;;;;;;20.23;53.52;94343.53;5082525;28;20099;-77
2023/09/26 07:07:54;;;;;;;16.42;3.80;;;;;;;20.24;55.54;94347.00;5082819;28;20031;-77
2023/09/26 07:10:22;;;;;;;21.92;4.15;;;;;;;20.31;55.32;94349.03;5082516;28;20204;-77
2023/09/26 07:12:47;;;;;;;24.60;4.65;;;;;;;20.33;53.51;94342.09;5082488;28;20025;-77
2023/09/26 07:15:13;;;;;;;17.25;3.78;;;;;;;20.40;55.96;94347.66;5082484;28;20028;-77
2023/09/26 07:17:39;;;;;;;16.23;3.10;;;;;;;20.40;55.20;94352.28;5082682;28;20035;-77
2023/09/26 07:20:15;;;;;;;20.83;4.03;;;;;;;20.44;54.94;94348.47;5084072;28;20027;-78
2023/09/26 07:22:41;;;;;;;19.85;4.55;;;;;;;20.49;54.68;94341.97;5086504;28;20318;-80
2023/09/26 07:25:07;;;;;;;18.08;3.55;;;;;;;20.60;54.65;94348.34;5086451;28;20381;-80
2023/09/26 07:27:32;;;;;;;16.08;4.13;;;;;;;20.64;54.80;94340.28;5068506;28;20344;-80
2023/09/26 07:29:57;;;;;;;14.93;3.47;;;;;;;20.68;54.02;94348.44;5086251;28;20025;-80
2023/09/26 07:32:23;;;;;;;35.42;3.67;;;;;;;20.70;52.34;94332.63;5086096;28;20028;-79
2023/09/26 07:34:49;;;;;;;8.90;3.78;;;;;;;20.82;52.63;94337.81;5086214;28;20035;-78
2023/09/26 07:37:14;;;;;;;26.05;3.92;;;;;;;20.97;53.27;94334.16;5068428;28;20200;-78
2023/09/26 07:39:45;;;;;;;27.85;4.00;;;;;;;21.11;51.29;94343.63;5085975;28;20084;-78
2023/09/26 07:42:10;;;;;;;23.58;3.92;;;;;;;21.24;51.54;94342.22;5085815;28;20218;-78
2023/09/26 07:44:35;;;;;;;16.98;4.10;;;;;;;21.35;51.75;94343.16;5085952;28;20027;-78
2023/09/26 07:47:02;;;;;;;17.70;3.83;;;;;;;21.47;50.47;94335.94;5084559;28;20035;-77
2023/09/26 07:49:27;;;;;;;22.23;4.80;;;;;;;21.57;50.29;94335.25;5085867;28;20035;-79
2023/09/26 07:51:53;;;;;;;23.58;4.20;;;;;;;21.66;50.78;94329.53;5085904;28;20020;-79
2023/09/26 07:54:18;;;;;;;19.15;3.75;;;;;;;21.76;50.47;94329.66;5085865;28;20020;-79
2023/09/26 07:56:44;;;;;;;24.40;3.63;;;;;;;21.83;49.34;94327.00;5084457;28;20374;-79
2023/09/26 07:59:09;;;;;;;15.38;4.13;;;;;;;21.95;49.48;94325.19;5085565;28;20020;-80
2023/09/26 08:01:34;;;;;;;19.58;4.47;;;;;;;22.03;47.33;94324.09;5067944;28;20027;-83
2023/09/26 08:04:00;;;;;;;23.80;3.90;;;;;;;22.07;47.37;94324.91;5085790;28;20188;-87
2023/09/26 08:06:25;;;;;;;27.98;4.78;;;;;;;22.10;46.76;94326.84;5085911;28;20021;-87
2023/09/26 08:08:51;;;;;;;13.52;3.83;;;;;;;22.08;45.49;94318.28;5085957;28;20066;-89
2023/09/26 08:11:30;;;;;;;18.02;3.53;;;;;;;22.11;46.04;94333.06;5086198;28;20021;-89
2023/09/26 08:13:56;;;;;;;27.25;4.43;;;;;;;22.13;46.53;94317.97;5064645;28;20061;-87
2023/09/26 08:16:22;;;;;;;18.15;3.33;;;;;;;22.10;46.03;94324.13;5081170;28;20316;-86
2023/09/26 08:18:49;;;;;;;25.63;4.00;;;;;;;22.10;46.29;94321.41;5065809;28;20021;-85
2023/09/26 08:21:15;;;;;;;24.92;4.35;;;;;;;22.14;46.65;94318.75;5065746;28;20025;-86
2023/09/26 08:23:40;;;;;;;12.75;3.47;;;;;;;22.13;45.50;94309.81;5064182;28;20029;-86
2023/09/26 08:26:10;;;;;;;13.40;3.22;;;;;;;22.15;44.65;94312.16;5065562;28;20258;-85
2023/09/26 08:28:36;;;;;;;16.45;3.75;;;;;;;22.13;44.14;94307.09;5064159;28;20029;-87
2023/09/26 08:31:07;;;;;;;14.57;4.00;;;;;;;22.10;45.54;94298.94;5081178;28;20033;-88
2023/09/26 08:33:34;;;;;;;20.17;4.03;;;;;;;22.07;44.95;94303.19;5064214;28;20045;-84
2023/09/26 08:36:00;;;;;;;17.48;4.30;;;;;;;22.11;45.09;94304.00;5064239;28;20088;-89
2023/09/26 08:38:55;;;;;;;18.83;4.53;;;;;;;22.01;44.72;94305.47;5081030;28;20032;-84
2023/09/26 08:41:20;;;;;;;23.67;3.53;;;;;;;22.04;45.67;94310.16;5046160;28;20055;-87
2023/09/26 08:43:46;;;;;;;15.02;3.55;;;;;;;22.08;43.66;94312.88;5080692;28;20096;-89
2023/09/26 08:46:12;;;;;;;19.17;3.83;;;;;;;22.12;43.88;94313.69;5064004;28;20099;-85
2023/09/26 08:48:39;;;;;;;17.27;3.33;;;;;;;22.22;44.11;94306.78;5064746;28;20044;-85
2023/09/26 08:51:05;;;;;;;11.52;3.08;;;;;;;22.26;42.99;94317.69;5064881;28;20020;-85
2023/09/26 08:53:31;;;;;;;17.20;3.40;;;;;;;22.31;43.71;94312.72;5064878;28;20047;-84
2023/09/26 08:55:56;;;;;;;19.45;4.88;;;;;;;22.36;43.19;94314.28;5063340;28;20335;-86
2023/09/26 08:58:24;;;;;;;16.40;4.22;;;;;;;22.36;45.21;94312.34;5064369;28;20112;-83
2023/09/26 09:00:50;;;;;;;23.30;5.03;;;;;;;22.41;43.41;94311.22;5064749;28;20067;-84
2023/09/26 09:03:16;;;;;;;14.55;3.30;;;;;;;22.40;43.25;94307.72;5063494;28;20044;-83
2023/09/26 09:05:42;;;;;;;11.25;3.83;;;;;;;22.28;44.07;94297.16;5064366;28;20028;-85
2023/09/26 09:08:08;;;;;;;16.75;4.47;;;;;;;22.51;46.13;94310.53;5064796;28;20021;-85
2023/09/26 09:10:54;;;;;;;11.85;3.38;;;;;;;22.71;43.28;94299.38;5064228;28;20032;-82
2023/09/26 09:13:29;;;;;;;24.55;4.10;;;;;;;22.82;43.73;94308.38;5069741;28;20130;-82
2023/09/26 09:16:11;;;;;;;17.70;3.80;;;;;;;22.94;45.01;94301.81;5084414;28;20098;-82
2023/09/26 09:18:38;;;;;;;23.90;4.10;;;;;;;23.10;42.94;94304.25;5084423;28;20020;-83
2023/09/26 09:21:19;;;;;;;9.23;3.50;;;;;;;23.16;43.22;94303.53;5084217;28;20032;-83
2023/09/26 09:23:52;;;;;;;16.33;5.07;;;;;;;23.27;43.00;94303.56;5084166;28;20210;-80
2023/09/26 09:26:20;;;;;;;13.80;3.63;;;;;;;23.42;44.56;94302.41;5084037;28;20266;-80
2023/09/26 09:28:46;;;;;;;18.77;3.50;;;;;;;23.57;43.40;94299.72;5084032;28;20044;-81
2023/09/26 09:31:16;;;;;;;17.88;3.30;;;;;;;23.74;42.77;94298.22;5083891;28;20028;-82
2023/09/26 09:33:46;;;;;;;16.40;3.90;;;;;;;23.91;43.18;94291.28;5083598;28;20150;-87
2023/09/26 09:36:12;;;;;;;16.65;4.30;;;;;;;24.03;43.13;94288.16;5064550;28;20040;-80
2023/09/26 09:38:38;;;;;;;14.35;3.42;;;;;;;24.10;42.69;94296.34;5082340;28;20196;-79
2023/09/26 09:41:04;;;;;;;11.52;2.95;;;;;;;24.13;40.97;94287.38;5082025;28;20089;-81
2023/09/26 09:43:29;;;;;;;8.35;3.63;;;;;;;24.08;42.65;94292.44;5081298;28;20048;-80
2023/09/26 09:45:57;;;;;;;13.82;3.38;;;;;;;24.18;43.58;94288.94;5064013;28;20032;-80
2023/09/26 09:48:26;;;;;;;22.15;3.67;;;;;;;24.15;40.61;94276.13;5081778;28;20020;-80
2023/09/26 09:50:54;;;;;;;16.10;3.65;;;;;;;24.18;42.06;94284.28;5082937;28;20105;-79
2023/09/26 09:53:21;;;;;;;7.30;2.88;;;;;;;24.19;40.61;94283.13;5063864;28;20024;-79
2023/09/26 09:55:51;;;;;;;21.30;4.03;;;;;;;24.19;41.26;94285.84;5082004;28;20020;-79
2023/09/26 09:58:17;;;;;;;8.43;2.88;;;;;;;24.23;41.01;94277.66;5082075;28;20246;-79
2023/09/26 10:00:43;;;;;;;13.93;3.20;;;;;;;24.17;40.53;94274.56;5064161;28;20035;-80
2023/09/26 10:03:11;;;;;;;14.30;3.20;;;;;;;24.22;40.72;94267.94;5081706;28;20214;-80
2023/09/26 10:05:38;;;;;;;13.60;2.90;;;;;;;24.26;41.28;94268.69;5082146;28;20061;-80
2023/09/26 10:08:06;;;;;;;18.42;3.10;;;;;;;24.26;40.70;94276.88;5083395;28;20210;-80
2023/09/26 10:10:33;;;;;;;12.05;3.47;;;;;;;24.35;41.08;94269.09;5083104;28;20017;-80
2023/09/26 10:13:00;;;;;;;12.25;3.60;;;;;;;24.41;42.70;94274.94;5083025;28;20016;-79
2023/09/26 10:15:25;;;;;;;16.30;3.17;;;;;;;24.40;40.99;94268.72;5083106;28;20044;-79
2023/09/26 10:17:52;;;;;;;18.15;3.45;;;;;;;24.44;40.58;94265.97;5065366;28;20016;-80
2023/09/26 10:20:17;;;;;;;12.13;3.03;;;;;;;24.42;40.98;94268.31;5083229;28;20019;-80
2023/09/26 10:22:44;;;;;;;13.10;4.43;;;;;;;24.45;39.38;94267.53;5083072;28;20294;-80
2023/09/26 10:25:22;;;;;;;14.82;3.85;;;;;;;24.51;39.72;94267.94;5082956;28;20017;-80
2023/09/26 10:27:50;;;;;;;11.10;3.60;;;;;;;24.46;39.17;94263.63;5083116;28;20024;-80
2023/09/26 10:30:18;;;;;;;16.02;3.90;;;;;;;24.38;38.75;94260.16;5082582;28;20047;-80
2023/09/26 10:32:45;;;;;;;19.08;3.70;;;;;;;24.41;39.40;94258.59;5083012;28;20221;-80
2023/09/26 10:35:13;;;;;;;15.82;3.35;;;;;;;24.43;38.76;94258.97;5082970;28;20036;-78
2023/09/26 10:37:48;;;;;;;15.88;3.47;;;;;;;24.45;39.59;94253.13;5082969;28;20056;-77
2023/09/26 10:40:14;;;;;;;19.65;3.67;;;;;;;24.53;41.77;94250.03;5082721;28;20030;-76
2023/09/26 10:42:42;;;;;;;13.57;3.88;;;;;;;24.70;40.73;94251.16;5082626;28;20315;-77
2023/09/26 10:45:09;;;;;;;13.65;4.40;;;;;;;24.73;38.08;94246.84;5082832;28;20096;-78
2023/09/26 10:47:37;;;;;;;13.25;3.25;;;;;;;24.58;40.88;94251.56;5082778;28;20039;-78
2023/09/26 10:50:08;;;;;;;17.08;3.38;;;;;;;24.70;39.74;94248.41;5082640;28;20063;-78
2023/09/26 10:52:34;;;;;;;13.75;3.05;;;;;;;24.57;39.63;94247.31;5064779;28;20192;-77
2023/09/26 10:54:59;;;;;;;18.23;4.70;;;;;;;24.34;40.33;94239.50;5081814;28;20300;-77
2023/09/26 10:57:25;;;;;;;14.55;3.42;;;;;;;24.51;40.54;94240.69;5081429;28;20134;-79
2023/09/26 10:59:51;;;;;;;26.10;3.78;;;;;;;24.74;41.42;94234.78;5081311;28;20028;-79
2023/09/26 11:02:17;;;;;;;17.05;3.45;;;;;;;24.64;39.89;94230.91;5080512;28;20050;-79
2023/09/26 11:04:43;;;;;;;13.52;3.40;;;;;;;24.69;39.06;94229.72;5082710;28;20021;-79
2023/09/26 11:07:09;;;;;;;8.70;3.00;;;;;;;24.90;39.63;94229.66;5082547;28;20039;-78
2023/09/26 11:09:42;;;;;;;12.60;3.65;;;;;;;25.19;39.07;94232.25;5064345;28;20028;-79
2023/09/26 11:12:08;;;;;;;9.15;2.92;;;;;;;25.41;38.37;94228.25;5082648;28;20046;-79
2023/09/26 11:14:35;;;;;;;11.48;3.38;;;;;;;25.42;35.98;94243.47;5082506;28;20086;-78
2023/09/26 11:17:00;;;;;;;13.30;3.17;;;;;;;25.50;38.30;94233.28;5082496;28;20118;-79
2023/09/26 11:19:26;;;;;;;19.70;3.60;;;;;;;25.58;37.21;94226.59;5082664;28;20424;-79
2023/09/26 11:21:54;;;;;;;25.15;4.28;;;;;;;25.56;36.61;94225.44;5082440;28;20206;-78
2023/09/26 11:24:30;;;;;;;22.30;3.50;;;;;;;25.58;36.86;94223.84;5082346;28;20027;-78
2023/09/26 11:26:58;;;;;;;17.42;3.75;;;;;;;25.72;37.19;94225.72;5064524;28;20020;-78